sensor_id;sensor_type;location;lat;lon;timestamp;P1;durP1;ratioP1;P2;durP2;ratioP2
22963;SDS011;11648;49.306;6.934;2024-01-16T00:01:00;6.60;;;3.07;;
22963;SDS011;11648;49.306;6.934;2024-01-16T00:03:27;6.67;;;2.80;;
22963;SDS011;11648;49.306;6.934;2024-01-16T00:05:54;8.13;;;3.30;;
22963;SDS011;11648;49.306;6.934;2024-01-16T00:08:21;6.33;;;2.93;;
22963;SDS011;11648;49.306;6.934;2024-01-16T00:10:48;6.70;;;2.90;;
22963;SDS011;11648;49.306;6.934;2024-01-16T00:13:15;5.90;;;2.70;;
22963;SDS011;11648;49.306;6.934;2024-01-16T00:15:42;9.63;;;3.30;;
22963;SDS011;11648;49.306;6.934;2024-01-16T00:18:09;6.57;;;3.23;;
22963;SDS011;11648;49.306;6.934;2024-01-16T00:20:36;5.90;;;2.90;;
22963;SDS011;11648;49.306;6.934;2024-01-16T00:23:03;7.37;;;3.13;;
22963;SDS011;11648;49.306;6.934;2024-01-16T00:25:30;9.20;;;3.10;;
22963;SDS011;11648;49.306;6.934;2024-01-16T00:27:57;6.60;;;3.00;;
22963;SDS011;11648;49.306;6.934;2024-01-16T00:30:24;6.80;;;3.50;;
22963;SDS011;11648;49.306;6.934;2024-01-16T00:32:51;7.07;;;3.30;;
22963;SDS011;11648;49.306;6.934;2024-01-16T00:35:18;8.33;;;3.30;;
22963;SDS011;11648;49.306;6.934;2024-01-16T00:37:45;9.20;;;2.80;;
22963;SDS011;11648;49.306;6.934;2024-01-16T00:40:12;5.90;;;3.10;;
22963;SDS011;11648;49.306;6.934;2024-01-16T00:42:39;7.07;;;3.00;;
22963;SDS011;11648;49.306;6.934;2024-01-16T00:45:06;5.67;;;3.07;;
22963;SDS011;11648;49.306;6.934;2024-01-16T00:47:33;9.57;;;3.40;;
22963;SDS011;11648;49.306;6.934;2024-01-16T00:50:00;5.67;;;3.33;;
22963;SDS011;11648;49.306;6.934;2024-01-16T00:52:29;7.77;;;3.23;;
22963;SDS011;11648;49.306;6.934;2024-01-16T00:54:55;6.10;;;3.30;;
22963;SDS011;11648;49.306;6.934;2024-01-16T00:57:22;9.37;;;3.20;;
22963;SDS011;11648;49.306;6.934;2024-01-16T00:59:49;8.40;;;3.10;;
22963;SDS011;11648;49.306;6.934;2024-01-16T01:02:16;5.97;;;2.83;;
22963;SDS011;11648;49.306;6.934;2024-01-16T01:04:43;7.40;;;3.10;;
22963;SDS011;11648;49.306;6.934;2024-01-16T01:07:12;8.43;;;3.03;;
22963;SDS011;11648;49.306;6.934;2024-01-16T01:09:42;5.67;;;3.03;;
22963;SDS011;11648;49.306;6.934;2024-01-16T01:12:09;5.77;;;2.67;;
22963;SDS011;11648;49.306;6.934;2024-01-16T01:14:36;7.07;;;3.07;;
22963;SDS011;11648;49.306;6.934;2024-01-16T01:17:03;7.77;;;3.33;;
22963;SDS011;11648;49.306;6.934;2024-01-16T01:19:30;8.00;;;3.07;;
22963;SDS011;11648;49.306;6.934;2024-01-16T01:21:57;6.33;;;3.17;;
22963;SDS011;11648;49.306;6.934;2024-01-16T01:24:24;7.77;;;3.33;;
22963;SDS011;11648;49.306;6.934;2024-01-16T01:26:51;9.10;;;3.43;;
22963;SDS011;11648;49.306;6.934;2024-01-16T01:29:18;7.37;;;3.50;;
22963;SDS011;11648;49.306;6.934;2024-01-16T01:31:45;8.23;;;3.53;;
22963;SDS011;11648;49.306;6.934;2024-01-16T01:34:14;5.70;;;3.13;;
22963;SDS011;11648;49.306;6.934;2024-01-16T01:36:42;5.23;;;3.10;;
22963;SDS011;11648;49.306;6.934;2024-01-16T01:39:10;5.50;;;3.30;;
22963;SDS011;11648;49.306;6.934;2024-01-16T01:41:39;7.30;;;3.20;;
22963;SDS011;11648;49.306;6.934;2024-01-16T01:44:06;6.83;;;3.10;;
22963;SDS011;11648;49.306;6.934;2024-01-16T01:46:34;9.57;;;3.50;;
22963;SDS011;11648;49.306;6.934;2024-01-16T01:49:02;6.07;;;2.97;;
22963;SDS011;11648;49.306;6.934;2024-01-16T01:51:29;5.97;;;3.23;;
22963;SDS011;11648;49.306;6.934;2024-01-16T01:53:57;5.93;;;3.23;;
22963;SDS011;11648;49.306;6.934;2024-01-16T01:56:25;11.57;;;3.60;;
22963;SDS011;11648;49.306;6.934;2024-01-16T01:58:54;9.60;;;3.40;;
22963;SDS011;11648;49.306;6.934;2024-01-16T02:01:23;7.90;;;3.47;;
22963;SDS011;11648;49.306;6.934;2024-01-16T02:03:52;7.77;;;3.30;;
22963;SDS011;11648;49.306;6.934;2024-01-16T02:06:21;8.20;;;3.43;;
22963;SDS011;11648;49.306;6.934;2024-01-16T02:08:48;7.97;;;3.40;;
22963;SDS011;11648;49.306;6.934;2024-01-16T02:11:15;10.53;;;4.20;;
22963;SDS011;11648;49.306;6.934;2024-01-16T02:13:42;7.53;;;3.43;;
22963;SDS011;11648;49.306;6.934;2024-01-16T02:16:22;5.47;;;3.20;;
22963;SDS011;11648;49.306;6.934;2024-01-16T02:18:49;9.90;;;3.67;;
22963;SDS011;11648;49.306;6.934;2024-01-16T02:21:20;6.30;;;3.50;;
22963;SDS011;11648;49.306;6.934;2024-01-16T02:23:48;6.77;;;3.23;;
22963;SDS011;11648;49.306;6.934;2024-01-16T02:26:15;7.50;;;3.10;;
22963;SDS011;11648;49.306;6.934;2024-01-16T02:28:42;8.30;;;3.50;;
22963;SDS011;11648;49.306;6.934;2024-01-16T02:31:09;8.37;;;3.27;;
22963;SDS011;11648;49.306;6.934;2024-01-16T02:33:36;10.87;;;3.63;;
22963;SDS011;11648;49.306;6.934;2024-01-16T02:36:03;6.33;;;3.47;;
22963;SDS011;11648;49.306;6.934;2024-01-16T02:38:30;7.80;;;3.27;;
22963;SDS011;11648;49.306;6.934;2024-01-16T02:40:57;7.33;;;3.33;;
22963;SDS011;11648;49.306;6.934;2024-01-16T02:43:24;8.63;;;3.30;;
22963;SDS011;11648;49.306;6.934;2024-01-16T02:45:53;8.10;;;3.60;;
22963;SDS011;11648;49.306;6.934;2024-01-16T02:48:20;6.43;;;3.23;;
22963;SDS011;11648;49.306;6.934;2024-01-16T02:50:47;7.27;;;3.20;;
22963;SDS011;11648;49.306;6.934;2024-01-16T02:53:14;9.70;;;3.40;;
22963;SDS011;11648;49.306;6.934;2024-01-16T02:55:41;8.53;;;3.33;;
22963;SDS011;11648;49.306;6.934;2024-01-16T02:58:08;7.53;;;3.87;;
22963;SDS011;11648;49.306;6.934;2024-01-16T03:00:35;8.23;;;3.20;;
22963;SDS011;11648;49.306;6.934;2024-01-16T03:03:02;10.77;;;3.90;;
22963;SDS011;11648;49.306;6.934;2024-01-16T03:05:29;8.90;;;3.50;;
22963;SDS011;11648;49.306;6.934;2024-01-16T03:07:56;7.90;;;3.70;;
22963;SDS011;11648;49.306;6.934;2024-01-16T03:10:23;8.43;;;3.37;;
22963;SDS011;11648;49.306;6.934;2024-01-16T03:12:50;6.50;;;3.50;;
22963;SDS011;11648;49.306;6.934;2024-01-16T03:15:16;5.97;;;3.10;;
22963;SDS011;11648;49.306;6.934;2024-01-16T03:17:43;8.13;;;3.17;;
22963;SDS011;11648;49.306;6.934;2024-01-16T03:20:10;6.90;;;3.50;;
22963;SDS011;11648;49.306;6.934;2024-01-16T03:22:38;7.60;;;3.17;;
22963;SDS011;11648;49.306;6.934;2024-01-16T03:25:06;8.13;;;3.67;;
22963;SDS011;11648;49.306;6.934;2024-01-16T03:27:34;6.70;;;3.23;;
22963;SDS011;11648;49.306;6.934;2024-01-16T03:30:02;9.10;;;3.40;;
22963;SDS011;11648;49.306;6.934;2024-01-16T03:32:30;6.40;;;3.40;;
22963;SDS011;11648;49.306;6.934;2024-01-16T03:34:57;9.27;;;3.23;;
22963;SDS011;11648;49.306;6.934;2024-01-16T03:37:24;10.87;;;3.53;;
22963;SDS011;11648;49.306;6.934;2024-01-16T03:39:50;8.40;;;3.50;;
22963;SDS011;11648;49.306;6.934;2024-01-16T03:42:17;10.93;;;3.77;;
22963;SDS011;11648;49.306;6.934;2024-01-16T03:44:44;8.17;;;3.40;;
22963;SDS011;11648;49.306;6.934;2024-01-16T03:47:11;7.93;;;3.43;;
22963;SDS011;11648;49.306;6.934;2024-01-16T03:49:39;8.73;;;3.40;;
22963;SDS011;11648;49.306;6.934;2024-01-16T03:52:06;8.03;;;3.40;;
22963;SDS011;11648;49.306;6.934;2024-01-16T03:54:33;7.27;;;3.20;;
22963;SDS011;11648;49.306;6.934;2024-01-16T03:56:59;8.57;;;3.50;;
22963;SDS011;11648;49.306;6.934;2024-01-16T03:59:26;8.67;;;3.73;;
22963;SDS011;11648;49.306;6.934;2024-01-16T04:01:53;9.77;;;3.07;;
22963;SDS011;11648;49.306;6.934;2024-01-16T04:04:20;5.53;;;2.90;;
22963;SDS011;11648;49.306;6.934;2024-01-16T04:06:49;8.43;;;3.60;;
22963;SDS011;11648;49.306;6.934;2024-01-16T04:09:16;6.77;;;3.20;;
22963;SDS011;11648;49.306;6.934;2024-01-16T04:11:43;9.33;;;3.17;;
22963;SDS011;11648;49.306;6.934;2024-01-16T04:14:11;7.13;;;3.23;;
22963;SDS011;11648;49.306;6.934;2024-01-16T04:16:38;9.00;;;3.33;;
22963;SDS011;11648;49.306;6.934;2024-01-16T04:19:05;10.57;;;3.30;;
22963;SDS011;11648;49.306;6.934;2024-01-16T04:21:32;6.50;;;2.90;;
22963;SDS011;11648;49.306;6.934;2024-01-16T04:23:58;9.77;;;3.10;;
22963;SDS011;11648;49.306;6.934;2024-01-16T04:26:25;7.13;;;3.20;;
22963;SDS011;11648;49.306;6.934;2024-01-16T04:28:52;7.43;;;3.33;;
22963;SDS011;11648;49.306;6.934;2024-01-16T04:31:19;6.30;;;3.13;;
22963;SDS011;11648;49.306;6.934;2024-01-16T04:33:48;6.43;;;2.80;;
22963;SDS011;11648;49.306;6.934;2024-01-16T04:36:15;8.70;;;3.37;;
22963;SDS011;11648;49.306;6.934;2024-01-16T04:38:42;7.07;;;3.20;;
22963;SDS011;11648;49.306;6.934;2024-01-16T04:41:09;8.27;;;3.30;;
22963;SDS011;11648;49.306;6.934;2024-01-16T04:43:36;8.53;;;3.27;;
22963;SDS011;11648;49.306;6.934;2024-01-16T04:46:03;5.47;;;3.23;;
22963;SDS011;11648;49.306;6.934;2024-01-16T04:48:30;7.20;;;3.43;;
22963;SDS011;11648;49.306;6.934;2024-01-16T04:50:57;10.43;;;3.73;;
22963;SDS011;11648;49.306;6.934;2024-01-16T04:53:24;8.87;;;3.50;;
22963;SDS011;11648;49.306;6.934;2024-01-16T04:55:51;7.23;;;3.20;;
22963;SDS011;11648;49.306;6.934;2024-01-16T04:58:19;7.73;;;3.60;;
22963;SDS011;11648;49.306;6.934;2024-01-16T05:00:45;7.07;;;3.00;;
22963;SDS011;11648;49.306;6.934;2024-01-16T05:03:14;6.40;;;3.50;;
22963;SDS011;11648;49.306;6.934;2024-01-16T05:05:41;5.50;;;3.07;;
22963;SDS011;11648;49.306;6.934;2024-01-16T05:08:08;9.67;;;3.10;;
22963;SDS011;11648;49.306;6.934;2024-01-16T05:10:35;10.37;;;3.70;;
22963;SDS011;11648;49.306;6.934;2024-01-16T05:13:02;7.87;;;3.33;;
22963;SDS011;11648;49.306;6.934;2024-01-16T05:15:29;6.23;;;3.17;;
22963;SDS011;11648;49.306;6.934;2024-01-16T05:17:56;12.80;;;4.60;;
22963;SDS011;11648;49.306;6.934;2024-01-16T05:20:23;11.20;;;4.40;;
22963;SDS011;11648;49.306;6.934;2024-01-16T05:22:50;10.03;;;4.97;;
22963;SDS011;11648;49.306;6.934;2024-01-16T05:25:16;7.13;;;3.70;;
22963;SDS011;11648;49.306;6.934;2024-01-16T05:27:44;8.87;;;3.80;;
22963;SDS011;11648;49.306;6.934;2024-01-16T05:30:11;7.80;;;3.83;;
22963;SDS011;11648;49.306;6.934;2024-01-16T05:32:38;9.27;;;3.60;;
22963;SDS011;11648;49.306;6.934;2024-01-16T05:35:08;9.50;;;3.93;;
22963;SDS011;11648;49.306;6.934;2024-01-16T05:37:36;11.13;;;3.53;;
22963;SDS011;11648;49.306;6.934;2024-01-16T05:40:03;8.50;;;3.50;;
22963;SDS011;11648;49.306;6.934;2024-01-16T05:42:30;10.53;;;3.53;;
22963;SDS011;11648;49.306;6.934;2024-01-16T05:44:57;8.47;;;3.60;;
22963;SDS011;11648;49.306;6.934;2024-01-16T05:47:24;7.87;;;4.10;;
22963;SDS011;11648;49.306;6.934;2024-01-16T05:49:54;9.30;;;3.50;;
22963;SDS011;11648;49.306;6.934;2024-01-16T05:52:22;7.77;;;4.07;;
22963;SDS011;11648;49.306;6.934;2024-01-16T05:54:49;10.00;;;3.70;;
22963;SDS011;11648;49.306;6.934;2024-01-16T05:57:16;7.47;;;3.80;;
22963;SDS011;11648;49.306;6.934;2024-01-16T05:59:43;7.43;;;3.40;;
22963;SDS011;11648;49.306;6.934;2024-01-16T06:02:10;7.80;;;3.50;;
22963;SDS011;11648;49.306;6.934;2024-01-16T06:04:37;7.47;;;3.47;;
22963;SDS011;11648;49.306;6.934;2024-01-16T06:07:04;10.10;;;4.07;;
22963;SDS011;11648;49.306;6.934;2024-01-16T06:09:37;9.13;;;3.90;;
22963;SDS011;11648;49.306;6.934;2024-01-16T06:12:06;9.37;;;3.73;;
22963;SDS011;11648;49.306;6.934;2024-01-16T06:14:36;9.80;;;3.97;;
22963;SDS011;11648;49.306;6.934;2024-01-16T06:17:03;9.33;;;3.77;;
22963;SDS011;11648;49.306;6.934;2024-01-16T06:19:32;9.57;;;3.80;;
22963;SDS011;11648;49.306;6.934;2024-01-16T06:21:59;11.53;;;4.33;;
22963;SDS011;11648;49.306;6.934;2024-01-16T06:24:26;8.43;;;3.87;;
22963;SDS011;11648;49.306;6.934;2024-01-16T06:26:53;7.97;;;4.13;;
22963;SDS011;11648;49.306;6.934;2024-01-16T06:29:20;10.20;;;5.70;;
22963;SDS011;11648;49.306;6.934;2024-01-16T06:32:00;10.93;;;5.67;;
22963;SDS011;11648;49.306;6.934;2024-01-16T06:34:27;10.17;;;5.53;;
22963;SDS011;11648;49.306;6.934;2024-01-16T06:36:54;11.10;;;5.60;;
22963;SDS011;11648;49.306;6.934;2024-01-16T06:39:21;10.43;;;5.50;;
22963;SDS011;11648;49.306;6.934;2024-01-16T06:41:48;11.67;;;4.73;;
22963;SDS011;11648;49.306;6.934;2024-01-16T06:44:15;12.07;;;5.30;;
22963;SDS011;11648;49.306;6.934;2024-01-16T06:46:42;11.37;;;5.00;;
22963;SDS011;11648;49.306;6.934;2024-01-16T06:49:09;9.70;;;4.40;;
22963;SDS011;11648;49.306;6.934;2024-01-16T06:51:36;10.47;;;4.53;;
22963;SDS011;11648;49.306;6.934;2024-01-16T06:54:03;9.93;;;4.20;;
22963;SDS011;11648;49.306;6.934;2024-01-16T06:56:30;10.63;;;4.70;;
22963;SDS011;11648;49.306;6.934;2024-01-16T06:58:57;10.53;;;4.80;;
22963;SDS011;11648;49.306;6.934;2024-01-16T07:01:24;10.87;;;4.80;;
22963;SDS011;11648;49.306;6.934;2024-01-16T07:03:50;10.60;;;4.53;;
22963;SDS011;11648;49.306;6.934;2024-01-16T07:06:19;10.27;;;4.77;;
22963;SDS011;11648;49.306;6.934;2024-01-16T07:08:46;11.77;;;4.40;;
22963;SDS011;11648;49.306;6.934;2024-01-16T07:11:13;10.30;;;4.73;;
22963;SDS011;11648;49.306;6.934;2024-01-16T07:13:40;13.37;;;5.23;;
22963;SDS011;11648;49.306;6.934;2024-01-16T07:16:10;8.03;;;4.57;;
22963;SDS011;11648;49.306;6.934;2024-01-16T07:18:38;13.30;;;5.23;;
22963;SDS011;11648;49.306;6.934;2024-01-16T07:21:16;9.90;;;4.70;;
22963;SDS011;11648;49.306;6.934;2024-01-16T07:23:47;10.93;;;4.63;;
22963;SDS011;11648;49.306;6.934;2024-01-16T07:26:15;12.27;;;5.40;;
22963;SDS011;11648;49.306;6.934;2024-01-16T07:28:43;11.30;;;5.77;;
22963;SDS011;11648;49.306;6.934;2024-01-16T07:31:10;12.30;;;5.43;;
22963;SDS011;11648;49.306;6.934;2024-01-16T07:33:38;12.53;;;5.33;;
22963;SDS011;11648;49.306;6.934;2024-01-16T07:36:06;9.40;;;5.20;;
22963;SDS011;11648;49.306;6.934;2024-01-16T07:38:34;12.97;;;5.90;;
22963;SDS011;11648;49.306;6.934;2024-01-16T07:41:03;10.47;;;5.63;;
22963;SDS011;11648;49.306;6.934;2024-01-16T07:43:30;11.93;;;5.50;;
22963;SDS011;11648;49.306;6.934;2024-01-16T07:45:58;11.13;;;5.90;;
22963;SDS011;11648;49.306;6.934;2024-01-16T07:48:25;10.50;;;5.73;;
22963;SDS011;11648;49.306;6.934;2024-01-16T07:50:52;13.73;;;6.63;;
22963;SDS011;11648;49.306;6.934;2024-01-16T07:53:19;11.27;;;5.83;;
22963;SDS011;11648;49.306;6.934;2024-01-16T07:55:46;11.67;;;5.83;;
22963;SDS011;11648;49.306;6.934;2024-01-16T07:58:13;10.73;;;6.17;;
22963;SDS011;11648;49.306;6.934;2024-01-16T08:00:40;12.83;;;6.67;;
22963;SDS011;11648;49.306;6.934;2024-01-16T08:03:08;13.07;;;7.60;;
22963;SDS011;11648;49.306;6.934;2024-01-16T08:05:38;12.97;;;7.53;;
22963;SDS011;11648;49.306;6.934;2024-01-16T08:08:05;14.03;;;7.53;;
22963;SDS011;11648;49.306;6.934;2024-01-16T08:10:34;21.27;;;11.40;;
22963;SDS011;11648;49.306;6.934;2024-01-16T08:13:01;18.33;;;10.67;;
22963;SDS011;11648;49.306;6.934;2024-01-16T08:15:28;19.80;;;10.87;;
22963;SDS011;11648;49.306;6.934;2024-01-16T08:17:55;17.93;;;9.10;;
22963;SDS011;11648;49.306;6.934;2024-01-16T08:20:22;13.90;;;8.60;;
22963;SDS011;11648;49.306;6.934;2024-01-16T08:22:49;13.63;;;8.30;;
22963;SDS011;11648;49.306;6.934;2024-01-16T08:25:16;17.07;;;9.60;;
22963;SDS011;11648;49.306;6.934;2024-01-16T08:27:43;34.63;;;15.90;;
22963;SDS011;11648;49.306;6.934;2024-01-16T08:30:10;42.57;;;20.17;;
22963;SDS011;11648;49.306;6.934;2024-01-16T08:32:39;44.80;;;20.50;;
22963;SDS011;11648;49.306;6.934;2024-01-16T08:35:06;35.30;;;14.87;;
22963;SDS011;11648;49.306;6.934;2024-01-16T08:37:33;16.87;;;9.17;;
22963;SDS011;11648;49.306;6.934;2024-01-16T08:40:01;13.17;;;6.63;;
22963;SDS011;11648;49.306;6.934;2024-01-16T08:42:30;17.90;;;7.70;;
22963;SDS011;11648;49.306;6.934;2024-01-16T08:44:57;21.07;;;9.30;;
22963;SDS011;11648;49.306;6.934;2024-01-16T08:47:24;24.10;;;12.47;;
22963;SDS011;11648;49.306;6.934;2024-01-16T08:49:51;29.23;;;12.83;;
22963;SDS011;11648;49.306;6.934;2024-01-16T08:52:18;29.80;;;15.03;;
22963;SDS011;11648;49.306;6.934;2024-01-16T08:54:45;35.67;;;15.93;;
22963;SDS011;11648;49.306;6.934;2024-01-16T08:57:12;28.77;;;14.60;;
22963;SDS011;11648;49.306;6.934;2024-01-16T08:59:43;25.43;;;12.00;;
22963;SDS011;11648;49.306;6.934;2024-01-16T09:02:10;19.87;;;9.93;;
22963;SDS011;11648;49.306;6.934;2024-01-16T09:04:37;16.27;;;7.87;;
22963;SDS011;11648;49.306;6.934;2024-01-16T09:07:04;14.37;;;7.47;;
22963;SDS011;11648;49.306;6.934;2024-01-16T09:09:32;14.53;;;6.47;;
22963;SDS011;11648;49.306;6.934;2024-01-16T09:11:59;12.70;;;6.47;;
22963;SDS011;11648;49.306;6.934;2024-01-16T09:14:26;12.53;;;6.23;;
22963;SDS011;11648;49.306;6.934;2024-01-16T09:16:53;14.17;;;6.30;;
22963;SDS011;11648;49.306;6.934;2024-01-16T09:19:20;10.00;;;5.67;;
22963;SDS011;11648;49.306;6.934;2024-01-16T09:21:48;11.17;;;5.90;;
22963;SDS011;11648;49.306;6.934;2024-01-16T09:24:15;10.43;;;5.40;;
22963;SDS011;11648;49.306;6.934;2024-01-16T09:26:42;13.87;;;6.37;;
22963;SDS011;11648;49.306;6.934;2024-01-16T09:29:09;10.27;;;5.40;;
22963;SDS011;11648;49.306;6.934;2024-01-16T09:31:37;11.97;;;6.77;;
22963;SDS011;11648;49.306;6.934;2024-01-16T09:34:04;14.20;;;7.00;;
22963;SDS011;11648;49.306;6.934;2024-01-16T09:36:35;12.70;;;6.40;;
22963;SDS011;11648;49.306;6.934;2024-01-16T09:39:04;12.77;;;6.37;;
22963;SDS011;11648;49.306;6.934;2024-01-16T09:41:44;10.13;;;5.83;;
22963;SDS011;11648;49.306;6.934;2024-01-16T09:44:11;11.13;;;6.17;;
22963;SDS011;11648;49.306;6.934;2024-01-16T09:46:38;12.40;;;6.70;;
22963;SDS011;11648;49.306;6.934;2024-01-16T09:49:07;11.50;;;6.00;;
22963;SDS011;11648;49.306;6.934;2024-01-16T09:51:35;10.97;;;5.63;;
22963;SDS011;11648;49.306;6.934;2024-01-16T09:54:02;9.80;;;5.23;;
22963;SDS011;11648;49.306;6.934;2024-01-16T09:56:32;13.20;;;5.73;;
22963;SDS011;11648;49.306;6.934;2024-01-16T09:59:05;9.27;;;5.53;;
22963;SDS011;11648;49.306;6.934;2024-01-16T10:01:32;10.03;;;4.87;;
22963;SDS011;11648;49.306;6.934;2024-01-16T10:04:00;9.70;;;4.63;;
22963;SDS011;11648;49.306;6.934;2024-01-16T10:06:27;11.33;;;5.40;;
22963;SDS011;11648;49.306;6.934;2024-01-16T10:08:56;7.10;;;3.83;;
22963;SDS011;11648;49.306;6.934;2024-01-16T10:11:23;9.53;;;4.27;;
22963;SDS011;11648;49.306;6.934;2024-01-16T10:13:50;6.73;;;3.70;;
22963;SDS011;11648;49.306;6.934;2024-01-16T10:16:16;7.07;;;3.50;;
22963;SDS011;11648;49.306;6.934;2024-01-16T10:18:43;5.23;;;2.93;;
22963;SDS011;11648;49.306;6.934;2024-01-16T10:21:19;9.43;;;3.80;;
22963;SDS011;11648;49.306;6.934;2024-01-16T10:23:48;8.57;;;3.73;;
22963;SDS011;11648;49.306;6.934;2024-01-16T10:26:16;11.77;;;4.83;;
22963;SDS011;11648;49.306;6.934;2024-01-16T10:28:44;7.23;;;4.10;;
22963;SDS011;11648;49.306;6.934;2024-01-16T10:31:12;9.77;;;4.47;;
22963;SDS011;11648;49.306;6.934;2024-01-16T10:33:43;8.37;;;4.60;;
22963;SDS011;11648;49.306;6.934;2024-01-16T10:36:14;11.37;;;4.17;;
22963;SDS011;11648;49.306;6.934;2024-01-16T10:38:47;9.03;;;4.33;;
22963;SDS011;11648;49.306;6.934;2024-01-16T10:41:15;7.63;;;4.00;;
22963;SDS011;11648;49.306;6.934;2024-01-16T10:44:04;8.27;;;3.60;;
22963;SDS011;11648;49.306;6.934;2024-01-16T10:46:33;8.50;;;3.67;;
22963;SDS011;11648;49.306;6.934;2024-01-16T10:49:04;8.23;;;3.67;;
22963;SDS011;11648;49.306;6.934;2024-01-16T10:51:31;6.37;;;3.83;;
22963;SDS011;11648;49.306;6.934;2024-01-16T10:53:59;8.17;;;4.33;;
22963;SDS011;11648;49.306;6.934;2024-01-16T10:56:32;8.43;;;4.10;;
22963;SDS011;11648;49.306;6.934;2024-01-16T11:02:04;6.93;;;4.00;;
22963;SDS011;11648;49.306;6.934;2024-01-16T11:04:36;8.73;;;5.20;;
22963;SDS011;11648;49.306;6.934;2024-01-16T11:07:05;9.52;;;5.13;;
22963;SDS011;11648;49.306;6.934;2024-01-16T11:09:33;7.80;;;4.57;;
22963;SDS011;11648;49.306;6.934;2024-01-16T11:12:01;8.77;;;4.45;;
22963;SDS011;11648;49.306;6.934;2024-01-16T11:14:29;10.00;;;4.63;;
22963;SDS011;11648;49.306;6.934;2024-01-16T11:16:57;7.30;;;4.57;;
22963;SDS011;11648;49.306;6.934;2024-01-16T11:19:27;6.38;;;4.07;;
22963;SDS011;11648;49.306;6.934;2024-01-16T11:22:14;7.13;;;4.35;;
22963;SDS011;11648;49.306;6.934;2024-01-16T11:24:42;6.63;;;3.90;;
22963;SDS011;11648;49.306;6.934;2024-01-16T11:27:12;9.00;;;4.13;;
22963;SDS011;11648;49.306;6.934;2024-01-16T11:29:51;7.15;;;4.30;;
22963;SDS011;11648;49.306;6.934;2024-01-16T11:32:35;8.70;;;4.28;;
22963;SDS011;11648;49.306;6.934;2024-01-16T11:35:05;7.45;;;4.53;;
22963;SDS011;11648;49.306;6.934;2024-01-16T11:37:35;7.47;;;3.97;;
22963;SDS011;11648;49.306;6.934;2024-01-16T11:42:43;8.10;;;4.90;;
22963;SDS011;11648;49.306;6.934;2024-01-16T11:50:37;8.18;;;4.85;;
22963;SDS011;11648;49.306;6.934;2024-01-16T11:53:04;6.20;;;3.90;;
22963;SDS011;11648;49.306;6.934;2024-01-16T11:55:35;6.50;;;3.90;;
22963;SDS011;11648;49.306;6.934;2024-01-16T12:00:52;7.20;;;4.45;;
22963;SDS011;11648;49.306;6.934;2024-01-16T12:03:21;7.03;;;4.40;;
22963;SDS011;11648;49.306;6.934;2024-01-16T12:06:00;6.50;;;4.53;;
22963;SDS011;11648;49.306;6.934;2024-01-16T12:08:33;6.22;;;4.20;;
22963;SDS011;11648;49.306;6.934;2024-01-16T12:11:00;8.30;;;4.68;;
22963;SDS011;11648;49.306;6.934;2024-01-16T12:13:27;7.20;;;4.40;;
22963;SDS011;11648;49.306;6.934;2024-01-16T12:16:01;7.43;;;4.28;;
22963;SDS011;11648;49.306;6.934;2024-01-16T12:18:30;7.82;;;5.03;;
22963;SDS011;11648;49.306;6.934;2024-01-16T12:21:13;7.00;;;4.28;;
22963;SDS011;11648;49.306;6.934;2024-01-16T12:23:42;8.05;;;5.20;;
22963;SDS011;11648;49.306;6.934;2024-01-16T12:26:21;8.73;;;5.10;;
22963;SDS011;11648;49.306;6.934;2024-01-16T12:28:52;7.68;;;4.75;;
22963;SDS011;11648;49.306;6.934;2024-01-16T12:31:26;8.27;;;5.20;;
22963;SDS011;11648;49.306;6.934;2024-01-16T12:34:15;7.60;;;4.93;;
22963;SDS011;11648;49.306;6.934;2024-01-16T12:36:41;7.63;;;4.80;;
22963;SDS011;11648;49.306;6.934;2024-01-16T12:39:10;8.63;;;5.05;;
22963;SDS011;11648;49.306;6.934;2024-01-16T12:41:41;8.00;;;5.30;;
22963;SDS011;11648;49.306;6.934;2024-01-16T12:44:10;8.70;;;4.72;;
22963;SDS011;11648;49.306;6.934;2024-01-16T12:46:53;7.35;;;4.72;;
22963;SDS011;11648;49.306;6.934;2024-01-16T12:49:22;8.37;;;4.53;;
22963;SDS011;11648;49.306;6.934;2024-01-16T12:51:50;6.70;;;3.70;;
22963;SDS011;11648;49.306;6.934;2024-01-16T12:54:17;6.40;;;3.10;;
22963;SDS011;11648;49.306;6.934;2024-01-16T12:56:57;6.60;;;3.53;;
22963;SDS011;11648;49.306;6.934;2024-01-16T12:59:27;6.77;;;3.83;;
22963;SDS011;11648;49.306;6.934;2024-01-16T13:01:56;6.87;;;3.63;;
22963;SDS011;11648;49.306;6.934;2024-01-16T13:04:23;8.10;;;4.07;;
22963;SDS011;11648;49.306;6.934;2024-01-16T13:06:50;7.63;;;3.50;;
22963;SDS011;11648;49.306;6.934;2024-01-16T13:09:17;5.90;;;3.47;;
22963;SDS011;11648;49.306;6.934;2024-01-16T13:11:49;8.63;;;5.10;;
22963;SDS011;11648;49.306;6.934;2024-01-16T13:14:18;11.10;;;5.83;;
22963;SDS011;11648;49.306;6.934;2024-01-16T13:16:48;9.63;;;4.27;;
22963;SDS011;11648;49.306;6.934;2024-01-16T13:19:16;9.70;;;5.20;;
22963;SDS011;11648;49.306;6.934;2024-01-16T13:21:49;11.57;;;5.17;;
22963;SDS011;11648;49.306;6.934;2024-01-16T13:24:17;11.63;;;4.60;;
22963;SDS011;11648;49.306;6.934;2024-01-16T13:26:47;8.47;;;4.33;;
22963;SDS011;11648;49.306;6.934;2024-01-16T13:29:14;8.97;;;4.60;;
22963;SDS011;11648;49.306;6.934;2024-01-16T13:31:42;7.10;;;4.07;;
22963;SDS011;11648;49.306;6.934;2024-01-16T13:34:10;7.23;;;3.90;;
22963;SDS011;11648;49.306;6.934;2024-01-16T13:36:37;6.00;;;3.37;;
22963;SDS011;11648;49.306;6.934;2024-01-16T13:39:24;7.17;;;3.63;;
22963;SDS011;11648;49.306;6.934;2024-01-16T13:41:52;7.43;;;3.43;;
22963;SDS011;11648;49.306;6.934;2024-01-16T13:44:19;6.60;;;3.30;;
22963;SDS011;11648;49.306;6.934;2024-01-16T13:46:46;7.83;;;3.47;;
22963;SDS011;11648;49.306;6.934;2024-01-16T13:49:31;6.50;;;3.50;;
22963;SDS011;11648;49.306;6.934;2024-01-16T13:52:00;6.90;;;3.47;;
22963;SDS011;11648;49.306;6.934;2024-01-16T13:54:27;10.03;;;4.20;;
22963;SDS011;11648;49.306;6.934;2024-01-16T13:56:54;11.20;;;3.40;;
22963;SDS011;11648;49.306;6.934;2024-01-16T13:59:34;6.43;;;3.67;;
22963;SDS011;11648;49.306;6.934;2024-01-16T14:02:02;7.40;;;2.97;;
22963;SDS011;11648;49.306;6.934;2024-01-16T14:04:30;8.73;;;3.33;;
22963;SDS011;11648;49.306;6.934;2024-01-16T14:06:56;7.60;;;3.13;;
22963;SDS011;11648;49.306;6.934;2024-01-16T14:09:39;6.53;;;3.13;;
22963;SDS011;11648;49.306;6.934;2024-01-16T14:12:09;5.70;;;3.07;;
22963;SDS011;11648;49.306;6.934;2024-01-16T14:14:36;6.80;;;2.60;;
22963;SDS011;11648;49.306;6.934;2024-01-16T14:17:06;6.07;;;2.60;;
22963;SDS011;11648;49.306;6.934;2024-01-16T14:19:35;7.53;;;3.10;;
22963;SDS011;11648;49.306;6.934;2024-01-16T14:22:03;6.70;;;2.90;;
22963;SDS011;11648;49.306;6.934;2024-01-16T14:24:30;5.23;;;2.63;;
22963;SDS011;11648;49.306;6.934;2024-01-16T14:26:57;6.37;;;2.27;;
22963;SDS011;11648;49.306;6.934;2024-01-16T14:29:24;5.47;;;2.17;;
22963;SDS011;11648;49.306;6.934;2024-01-16T14:31:52;5.40;;;2.80;;
22963;SDS011;11648;49.306;6.934;2024-01-16T14:34:22;5.17;;;2.50;;
22963;SDS011;11648;49.306;6.934;2024-01-16T14:36:50;4.83;;;2.30;;
22963;SDS011;11648;49.306;6.934;2024-01-16T14:39:17;6.00;;;2.30;;
22963;SDS011;11648;49.306;6.934;2024-01-16T14:41:52;3.90;;;2.00;;
22963;SDS011;11648;49.306;6.934;2024-01-16T14:44:20;4.53;;;2.60;;
22963;SDS011;11648;49.306;6.934;2024-01-16T14:46:47;4.47;;;2.10;;
22963;SDS011;11648;49.306;6.934;2024-01-16T14:49:25;5.90;;;2.13;;
22963;SDS011;11648;49.306;6.934;2024-01-16T14:51:58;4.93;;;2.27;;
22963;SDS011;11648;49.306;6.934;2024-01-16T14:54:25;5.93;;;2.37;;
22963;SDS011;11648;49.306;6.934;2024-01-16T14:56:52;6.40;;;2.60;;
22963;SDS011;11648;49.306;6.934;2024-01-16T14:59:19;6.87;;;2.80;;
22963;SDS011;11648;49.306;6.934;2024-01-16T15:01:46;8.60;;;2.50;;
22963;SDS011;11648;49.306;6.934;2024-01-16T15:04:13;5.63;;;2.30;;